createdAt,value
2022-10-11T00:00:20.973Z,9.60
2022-10-11T00:02:48.627Z,12.25
2022-10-11T00:05:16.147Z,11.77
2022-10-11T00:07:43.895Z,12.60
2022-10-11T00:10:11.265Z,11.15
2022-10-11T00:12:38.984Z,17.35
2022-10-11T00:15:07.592Z,13.68
2022-10-11T00:17:34.964Z,18.90
2022-10-11T00:20:02.668Z,17.80
2022-10-11T00:22:30.186Z,11.95
2022-10-11T00:24:58.878Z,15.10
2022-10-11T00:27:26.250Z,20.25
2022-10-11T00:29:53.711Z,20.75
2022-10-11T00:32:21.076Z,27.08
2022-10-11T00:34:48.739Z,21.05
2022-10-11T00:37:16.225Z,21.90
2022-10-11T00:39:43.676Z,23.35
2022-10-11T00:42:15.013Z,23.23
2022-10-11T00:44:47.187Z,15.93
2022-10-11T00:47:22.466Z,16.52
2022-10-11T00:49:58.410Z,19.70
2022-10-11T00:52:32.082Z,23.10
2022-10-11T00:55:01.951Z,19.40
2022-10-11T00:57:31.329Z,23.00
2022-10-11T00:59:59.926Z,18.40
2022-10-11T01:02:27.566Z,17.67
2022-10-11T01:05:17.993Z,19.15
2022-10-11T01:07:43.629Z,22.58
2022-10-11T01:10:11.288Z,18.65
2022-10-11T01:12:42.447Z,23.40
2022-10-11T01:15:24.038Z,24.77
2022-10-11T01:17:51.389Z,19.20
2022-10-11T01:20:32.588Z,17.98
2022-10-11T01:23:25.874Z,22.48
2022-10-11T01:26:05.707Z,15.85
2022-10-11T01:28:53.407Z,21.52
2022-10-11T01:31:20.769Z,17.73
2022-10-11T01:33:55.617Z,19.80
2022-10-11T01:36:32.488Z,17.33
2022-10-11T01:39:18.677Z,21.75
2022-10-11T01:41:51.332Z,13.80
2022-10-11T01:44:19.707Z,13.55
2022-10-11T01:46:47.476Z,15.32
2022-10-11T01:49:14.930Z,13.70
2022-10-11T01:51:47.362Z,14.05
2022-10-11T01:54:50.180Z,11.35
2022-10-11T01:57:45.237Z,13.95
2022-10-11T02:00:18.912Z,16.42
2022-10-11T02:02:58.185Z,18.27
2022-10-11T02:05:44.246Z,12.00
2022-10-11T02:08:14.712Z,15.13
2022-10-11T02:10:55.832Z,18.27
2022-10-11T02:13:23.116Z,16.95
2022-10-11T02:15:51.503Z,20.85
2022-10-11T02:18:20.645Z,11.85
2022-10-11T02:20:48.628Z,14.82
2022-10-11T02:23:28.258Z,13.25
2022-10-11T02:25:57.161Z,14.27
2022-10-11T02:28:26.839Z,19.15
2022-10-11T02:30:55.031Z,14.65
2022-10-11T02:33:28.982Z,12.45
2022-10-11T02:36:00.352Z,19.50
2022-10-11T02:38:48.795Z,14.63
2022-10-11T02:41:23.160Z,10.73
2022-10-11T02:46:17.987Z,15.50
2022-10-11T02:48:45.333Z,16.60
2022-10-11T02:51:14.318Z,17.40
2022-10-11T02:53:41.621Z,12.13
2022-10-11T02:56:09.263Z,19.17
2022-10-11T02:58:36.990Z,18.92
2022-10-11T03:01:05.023Z,17.75
2022-10-11T03:03:32.465Z,16.15
2022-10-11T03:06:01.163Z,12.32
2022-10-11T03:08:29.135Z,14.52
2022-10-11T03:10:56.634Z,16.17
2022-10-11T03:13:24.281Z,15.43
2022-10-11T03:16:07.288Z,14.95
2022-10-11T03:18:35.600Z,14.48
2022-10-11T03:21:03.075Z,17.63
2022-10-11T03:23:30.541Z,15.57
2022-10-11T03:25:57.879Z,21.48
2022-10-11T03:28:25.210Z,11.80
2022-10-11T03:30:53.409Z,26.92
2022-10-11T03:33:20.964Z,15.35
2022-10-11T03:35:49.250Z,13.23
2022-10-11T03:38:18.159Z,17.30
2022-10-11T03:40:45.729Z,15.80
2022-10-11T03:43:13.135Z,18.63
2022-10-11T03:45:42.487Z,14.60
2022-10-11T03:48:10.979Z,17.35
2022-10-11T03:50:39.448Z,16.63
2022-10-11T03:53:07.416Z,14.90
2022-10-11T03:55:34.902Z,13.60
2022-10-11T03:58:02.349Z,13.55
2022-10-11T04:00:29.759Z,12.82
2022-10-11T04:02:57.306Z,14.15
2022-10-11T04:05:24.588Z,14.45
2022-10-11T04:07:52.219Z,17.77
2022-10-11T04:10:19.790Z,13.55
2022-10-11T04:12:47.281Z,11.95
2022-10-11T04:15:14.685Z,13.85
2022-10-11T04:17:42.875Z,19.60
2022-10-11T04:20:11.006Z,11.15
2022-10-11T04:22:38.967Z,12.73
2022-10-11T04:25:07.520Z,17.27
2022-10-11T04:27:35.366Z,14.38
2022-10-11T04:30:02.972Z,9.50
2022-10-11T04:32:30.692Z,14.25
2022-10-11T04:34:58.051Z,17.02
2022-10-11T04:37:25.515Z,11.63
2022-10-11T04:39:52.951Z,12.82
2022-10-11T04:42:20.830Z,16.45
2022-10-11T04:44:48.180Z,16.70
2022-10-11T04:47:15.769Z,14.75
2022-10-11T04:49:43.238Z,14.60
2022-10-11T04:52:10.757Z,17.27
2022-10-11T04:54:38.056Z,15.73
2022-10-11T04:57:05.725Z,18.33
2022-10-11T04:59:33.508Z,15.07
2022-10-11T05:02:01.020Z,19.63
2022-10-11T05:04:28.579Z,14.70
2022-10-11T05:06:56.281Z,17.63
2022-10-11T05:09:23.974Z,16.38
2022-10-11T05:11:51.340Z,16.00
2022-10-11T05:14:18.663Z,20.00
2022-10-11T05:16:46.344Z,13.88
2022-10-11T05:19:13.634Z,22.20
2022-10-11T05:21:41.021Z,13.73
2022-10-11T05:24:08.533Z,22.83
2022-10-11T05:26:37.334Z,14.45
2022-10-11T05:29:04.835Z,22.67
2022-10-11T05:31:33.011Z,24.02
2022-10-11T05:34:00.399Z,17.25
2022-10-11T05:36:27.738Z,21.13
2022-10-11T05:38:55.072Z,13.15
2022-10-11T05:41:22.561Z,17.13
2022-10-11T05:43:49.969Z,17.52
2022-10-11T05:46:17.537Z,20.48
2022-10-11T05:48:44.993Z,23.58
2022-10-11T05:51:12.865Z,17.45
2022-10-11T05:53:40.642Z,19.58
2022-10-11T05:56:18.597Z,17.27
2022-10-11T05:58:46.282Z,16.45
2022-10-11T06:01:17.946Z,17.60
2022-10-11T06:03:45.706Z,20.25
2022-10-11T06:06:13.419Z,17.27
2022-10-11T06:08:40.796Z,17.17
2022-10-11T06:11:15.586Z,18.02
2022-10-11T06:13:43.258Z,16.30
2022-10-11T06:16:11.211Z,15.35
2022-10-11T06:18:38.975Z,14.85
2022-10-11T06:21:06.769Z,15.75
2022-10-11T06:23:34.475Z,15.15
2022-10-11T06:26:07.536Z,18.30
2022-10-11T06:28:36.301Z,19.77
2022-10-11T06:31:05.419Z,19.02
2022-10-11T06:33:33.290Z,15.32
2022-10-11T06:36:01.773Z,23.38
2022-10-11T06:38:29.340Z,21.15
2022-10-11T06:40:56.989Z,20.63
2022-10-11T06:43:25.386Z,21.67
2022-10-11T06:45:53.144Z,21.98
2022-10-11T06:48:20.617Z,27.45
2022-10-11T06:50:59.652Z,22.00
2022-10-11T06:53:28.497Z,21.58
2022-10-11T06:56:02.447Z,16.98
2022-10-11T06:58:30.129Z,20.77
2022-10-11T07:01:00.845Z,22.35
2022-10-11T07:03:28.698Z,24.27
2022-10-11T07:06:02.653Z,23.48
2022-10-11T07:08:30.552Z,18.90
2022-10-11T07:11:04.054Z,28.33
2022-10-11T07:13:31.873Z,21.17
2022-10-11T07:16:01.965Z,20.30
2022-10-11T07:18:30.062Z,20.02
2022-10-11T07:20:58.318Z,22.98
2022-10-11T07:23:26.121Z,23.70
2022-10-11T07:25:55.181Z,17.92
2022-10-11T07:28:23.548Z,18.17
2022-10-11T07:30:51.111Z,20.52
2022-10-11T07:33:18.815Z,26.92
2022-10-11T07:35:48.558Z,23.40
2022-10-11T07:38:16.392Z,21.70
2022-10-11T07:40:45.813Z,23.27
2022-10-11T07:43:14.090Z,19.05
2022-10-11T07:45:42.490Z,18.50
2022-10-11T07:48:09.933Z,18.80
2022-10-11T07:50:37.584Z,22.65
2022-10-11T07:53:05.362Z,17.08
2022-10-11T07:55:40.425Z,23.08
2022-10-11T07:58:08.962Z,22.35
2022-10-11T08:00:36.374Z,25.65
2022-10-11T08:03:07.503Z,20.92
2022-10-11T08:05:35.103Z,21.58
2022-10-11T08:08:02.517Z,25.42
2022-10-11T08:10:30.093Z,24.48
2022-10-11T08:13:01.954Z,23.48
2022-10-11T08:15:31.457Z,27.20
2022-10-11T08:17:58.800Z,30.60
2022-10-11T08:20:26.525Z,29.73
2022-10-11T08:22:54.123Z,24.20
2022-10-11T08:25:21.492Z,26.65
2022-10-11T08:27:49.218Z,23.67
2022-10-11T08:30:16.758Z,23.40
2022-10-11T08:32:44.083Z,30.15
2022-10-11T08:35:11.533Z,30.88
2022-10-11T08:37:39.095Z,23.80
2022-10-11T08:40:07.123Z,22.15
2022-10-11T08:42:42.158Z,27.58
2022-10-11T08:45:19.813Z,21.88
2022-10-11T08:47:48.130Z,24.20
2022-10-11T08:50:20.956Z,21.73
2022-10-11T08:52:53.492Z,22.85
2022-10-11T08:55:27.232Z,22.55
2022-10-11T08:57:55.853Z,14.55
2022-10-11T09:00:24.034Z,19.15
2022-10-11T09:03:13.949Z,20.05
2022-10-11T09:06:01.721Z,19.27
2022-10-11T09:08:48.183Z,19.05
2022-10-11T09:11:21.108Z,14.43
2022-10-11T09:14:07.208Z,16.98
2022-10-11T09:16:34.650Z,18.92
2022-10-11T09:19:18.020Z,16.50
2022-10-11T09:22:04.750Z,17.85
2022-10-11T09:25:07.676Z,19.23
2022-10-11T09:28:01.895Z,20.73
2022-10-11T09:30:30.859Z,20.10
2022-10-11T09:33:04.705Z,24.85
2022-10-11T09:35:35.056Z,22.50
2022-10-11T09:38:02.332Z,19.10
2022-10-11T09:40:32.742Z,25.17
2022-10-11T09:43:00.443Z,22.63
2022-10-11T09:45:28.395Z,24.92
2022-10-11T09:47:57.443Z,26.30
2022-10-11T09:50:30.828Z,23.02
2022-10-11T09:53:05.020Z,20.63
2022-10-11T09:55:34.294Z,20.95
2022-10-11T09:58:01.701Z,20.35
2022-10-11T10:00:32.584Z,20.80
2022-10-11T10:03:06.794Z,24.38
2022-10-11T10:05:37.056Z,17.38
2022-10-11T10:08:10.711Z,22.90
2022-10-11T10:10:46.329Z,13.82
2022-10-11T10:13:23.245Z,10.95
2022-10-11T10:15:53.894Z,16.50
2022-10-11T10:18:26.179Z,19.42
2022-10-11T10:20:55.167Z,15.30
2022-10-11T10:23:24.414Z,13.95
2022-10-11T10:25:52.349Z,17.92
2022-10-11T10:28:24.487Z,12.90
2022-10-11T10:30:54.558Z,12.68
2022-10-11T10:33:23.470Z,15.50
2022-10-11T10:36:09.802Z,17.83
2022-10-11T10:38:41.340Z,18.60
2022-10-11T10:41:13.497Z,16.75
2022-10-11T10:43:42.640Z,13.05
2022-10-11T10:46:25.600Z,16.90
2022-10-11T10:52:17.712Z,13.75
2022-10-11T10:54:50.876Z,12.25
2022-10-11T10:57:32.804Z,15.95
2022-10-11T11:00:04.027Z,14.30
2022-10-11T11:02:40.694Z,11.88
2022-10-11T11:05:08.747Z,20.15
2022-10-11T11:07:52.875Z,13.20
2022-10-11T11:10:22.794Z,11.93
2022-10-11T11:12:53.308Z,10.38
2022-10-11T11:15:32.029Z,11.00
2022-10-11T11:17:59.886Z,17.42
2022-10-11T11:20:42.447Z,12.45
2022-10-11T11:23:28.438Z,14.38
2022-10-11T11:26:02.728Z,17.55
2022-10-11T11:28:33.745Z,11.15
2022-10-11T11:31:01.111Z,11.07
2022-10-11T11:33:31.824Z,12.68
2022-10-11T11:36:03.414Z,10.52
2022-10-11T11:38:45.764Z,8.77
2022-10-11T11:41:24.015Z,11.45
2022-10-11T11:43:57.752Z,9.55
2022-10-11T11:46:30.756Z,13.95
2022-10-11T11:48:59.943Z,12.43
2022-10-11T11:51:33.902Z,22.60
2022-10-11T11:54:06.369Z,16.15
2022-10-11T11:56:46.078Z,13.25
2022-10-11T11:59:43.256Z,14.80
2022-10-11T12:02:16.756Z,11.57
2022-10-11T12:04:45.706Z,12.40
2022-10-11T12:07:17.068Z,14.50
2022-10-11T12:09:52.847Z,12.57
2022-10-11T12:12:26.410Z,16.45
2022-10-11T12:15:03.388Z,11.73
2022-10-11T12:17:30.831Z,11.13
2022-10-11T12:20:24.519Z,10.50
2022-10-11T12:23:02.372Z,14.00
2022-10-11T12:25:31.673Z,12.65
2022-10-11T12:27:59.910Z,13.18
2022-10-11T12:30:48.630Z,15.73
2022-10-11T12:33:18.087Z,14.13
2022-10-11T12:36:08.424Z,13.85
2022-10-11T12:38:38.002Z,14.32
2022-10-11T12:41:13.439Z,11.68
2022-10-11T12:43:49.858Z,15.45
2022-10-11T12:46:29.500Z,14.85
2022-10-11T12:49:13.746Z,13.85
2022-10-11T12:51:46.924Z,13.07
2022-10-11T12:54:33.291Z,12.65
2022-10-11T12:57:12.392Z,14.13
2022-10-11T12:59:42.798Z,14.65
2022-10-11T13:02:24.466Z,14.98
2022-10-11T13:04:51.984Z,14.82
2022-10-11T13:07:23.837Z,16.02
2022-10-11T13:09:54.433Z,16.15
2022-10-11T13:12:23.529Z,10.95
2022-10-11T13:15:12.856Z,17.33
2022-10-11T13:17:40.702Z,13.00
2022-10-11T13:20:17.841Z,9.70
2022-10-11T13:22:47.690Z,13.20
2022-10-11T13:25:19.948Z,10.68
2022-10-11T13:27:48.240Z,14.52
2022-10-11T13:30:25.668Z,15.93
2022-10-11T13:32:53.802Z,11.15
2022-10-11T13:35:29.766Z,12.68
2022-10-11T13:37:57.479Z,14.93
2022-10-11T13:40:25.023Z,15.32
2022-10-11T13:42:53.165Z,13.32
2022-10-11T13:45:21.956Z,14.40
2022-10-11T13:47:50.032Z,11.55
2022-10-11T13:50:23.928Z,11.45
2022-10-11T13:52:55.777Z,9.07
2022-10-11T13:55:25.111Z,15.13
2022-10-11T13:57:52.570Z,14.90
2022-10-11T14:00:25.123Z,15.63
2022-10-11T14:02:52.657Z,22.00
2022-10-11T14:05:32.495Z,15.27
2022-10-11T14:08:01.477Z,14.75
2022-10-11T14:10:29.934Z,14.73
2022-10-11T14:13:00.609Z,17.02
2022-10-11T14:15:28.710Z,20.38
2022-10-11T14:17:56.103Z,13.30
2022-10-11T14:20:23.543Z,16.65
2022-10-11T14:22:54.841Z,16.67
2022-10-11T14:25:22.596Z,12.82
2022-10-11T14:27:50.303Z,14.38
2022-10-11T14:30:25.613Z,13.73
2022-10-11T14:32:56.001Z,14.38
2022-10-11T14:35:25.589Z,16.58
2022-10-11T14:37:53.430Z,19.10
2022-10-11T14:40:24.549Z,15.43
2022-10-11T14:42:52.149Z,15.70
2022-10-11T14:45:21.579Z,10.77
2022-10-11T14:47:49.742Z,11.23
2022-10-11T14:50:23.753Z,11.77
2022-10-11T14:52:51.467Z,28.13
2022-10-11T14:55:19.274Z,13.38
2022-10-11T14:57:46.912Z,13.88
2022-10-11T15:00:20.786Z,13.65
2022-10-11T15:02:48.453Z,14.63
2022-10-11T15:05:15.909Z,15.38
2022-10-11T15:07:43.406Z,18.10
2022-10-11T15:10:20.343Z,15.43
2022-10-11T15:12:47.747Z,15.18
2022-10-11T15:15:22.901Z,15.23
2022-10-11T15:17:59.804Z,19.17
2022-10-11T15:20:29.176Z,14.20
2022-10-11T15:22:57.414Z,13.15
2022-10-11T15:25:25.039Z,16.70
2022-10-11T15:27:52.440Z,18.95
2022-10-11T15:30:23.219Z,17.58
2022-10-11T15:32:51.030Z,15.60
2022-10-11T15:35:19.113Z,12.60
2022-10-11T15:37:46.829Z,12.60
2022-10-11T15:40:14.568Z,10.82
2022-10-11T15:42:42.564Z,15.57
2022-10-11T15:45:10.429Z,14.15
2022-10-11T15:47:38.140Z,12.80
2022-10-11T15:50:11.865Z,14.85
2022-10-11T15:52:39.219Z,14.70
2022-10-11T15:55:06.807Z,18.02
2022-10-11T15:57:34.111Z,17.10
2022-10-11T16:00:01.443Z,14.63
2022-10-11T16:02:29.182Z,14.18
2022-10-11T16:04:56.628Z,14.25
2022-10-11T16:07:24.029Z,18.15
2022-10-11T16:09:51.467Z,15.30
2022-10-11T16:12:19.222Z,17.42
2022-10-11T16:14:47.411Z,18.35
2022-10-11T16:17:14.816Z,21.65
2022-10-11T16:19:42.148Z,20.38
2022-10-11T16:22:09.829Z,27.25
2022-10-11T16:24:37.292Z,29.88
2022-10-11T16:27:04.787Z,19.98
2022-10-11T16:29:32.251Z,21.95
2022-10-11T16:31:59.974Z,26.00
2022-10-11T16:34:27.646Z,20.92
2022-10-11T16:36:54.983Z,23.13
2022-10-11T16:39:22.430Z,15.10
2022-10-11T16:41:50.110Z,22.88
2022-10-11T16:44:18.833Z,17.50
2022-10-11T16:46:49.562Z,14.18
2022-10-11T16:49:18.048Z,24.08
2022-10-11T16:51:45.393Z,24.65
2022-10-11T16:54:16.614Z,21.00
2022-10-11T16:56:46.861Z,21.23
2022-10-11T16:59:14.147Z,24.83
2022-10-11T17:01:41.647Z,19.42
2022-10-11T17:04:08.973Z,18.48
2022-10-11T17:06:36.325Z,18.52
2022-10-11T17:09:04.554Z,21.27
2022-10-11T17:11:31.937Z,27.50
2022-10-11T17:14:01.151Z,25.05
2022-10-11T17:16:28.558Z,22.30
2022-10-11T17:18:56.038Z,21.70
2022-10-11T17:21:23.490Z,20.98
2022-10-11T17:23:51.156Z,22.42
2022-10-11T17:26:20.193Z,22.90
2022-10-11T17:28:47.814Z,37.60
2022-10-11T17:31:15.271Z,29.33
2022-10-11T17:33:42.595Z,27.88
2022-10-11T17:36:28.177Z,31.50
2022-10-11T17:38:55.985Z,29.67
2022-10-11T17:41:25.967Z,32.08
2022-10-11T17:43:55.551Z,33.13
2022-10-11T17:46:25.325Z,32.28
2022-10-11T17:48:55.737Z,33.25
2022-10-11T17:51:23.192Z,34.88
2022-10-11T17:53:51.308Z,36.55
2022-10-11T17:56:25.321Z,41.35
2022-10-11T17:58:56.368Z,33.83
2022-10-11T18:01:24.890Z,30.67
2022-10-11T18:03:53.999Z,28.63
2022-10-11T18:06:21.668Z,25.08
2022-10-11T18:08:49.315Z,35.20
2022-10-11T18:11:18.750Z,23.42
2022-10-11T18:13:48.796Z,35.63
2022-10-11T18:16:17.395Z,26.90
2022-10-11T18:18:44.982Z,21.95
2022-10-11T18:21:12.646Z,25.58
2022-10-11T18:23:40.271Z,25.40
2022-10-11T18:26:10.843Z,28.30
2022-10-11T18:28:38.683Z,32.60
2022-10-11T18:31:13.203Z,25.35
2022-10-11T18:33:41.151Z,87.40
2022-10-11T18:36:09.610Z,34.70
2022-10-11T18:38:38.372Z,23.75
2022-10-11T18:41:07.372Z,21.73
2022-10-11T18:43:35.703Z,21.08
2022-10-11T18:46:04.818Z,25.23
2022-10-11T18:48:33.031Z,29.75
2022-10-11T18:51:08.523Z,26.20
2022-10-11T18:53:36.645Z,25.40
2022-10-11T18:56:05.319Z,33.42
2022-10-11T18:58:33.887Z,30.70
2022-10-11T19:01:13.561Z,18.60
2022-10-11T19:03:40.897Z,24.77
2022-10-11T19:06:11.310Z,23.50
2022-10-11T19:08:38.986Z,24.50
2022-10-11T19:11:09.934Z,24.70
2022-10-11T19:13:37.639Z,30.25
2022-10-11T19:16:09.154Z,26.38
2022-10-11T19:18:40.512Z,24.85
2022-10-11T19:21:12.964Z,29.90
2022-10-11T19:23:42.415Z,28.50
2022-10-11T19:26:13.218Z,28.10
2022-10-11T19:28:41.044Z,32.00
2022-10-11T19:31:09.924Z,31.60
2022-10-11T19:33:37.752Z,34.70
2022-10-11T19:36:06.961Z,30.88
2022-10-11T19:38:35.551Z,29.48
2022-10-11T19:41:03.731Z,25.23
2022-10-11T19:43:31.410Z,25.45
2022-10-11T19:46:02.928Z,25.67
2022-10-11T19:48:30.528Z,22.83
2022-10-11T19:51:08.642Z,27.20
2022-10-11T19:53:36.598Z,24.90
2022-10-11T19:56:05.017Z,27.08
2022-10-11T19:58:32.524Z,24.85
2022-10-11T20:01:04.294Z,27.67
2022-10-11T20:03:32.379Z,22.55
2022-10-11T20:06:02.969Z,28.00
2022-10-11T20:08:31.620Z,28.15
2022-10-11T20:10:59.810Z,32.15
2022-10-11T20:13:31.147Z,26.52
2022-10-11T20:16:03.166Z,28.10
2022-10-11T20:18:30.845Z,24.73
2022-10-11T20:20:59.892Z,21.80
2022-10-11T20:23:28.025Z,27.48
2022-10-11T20:26:04.550Z,38.63
2022-10-11T20:28:33.317Z,36.35
2022-10-11T20:31:01.554Z,30.67
2022-10-11T20:33:29.542Z,32.45
2022-10-11T20:36:03.138Z,28.38
2022-10-11T20:38:31.827Z,28.60
2022-10-11T20:40:59.666Z,30.23
2022-10-11T20:43:27.122Z,30.20
2022-10-11T20:46:02.226Z,27.00
2022-10-11T20:48:30.195Z,27.90
2022-10-11T20:50:57.787Z,25.83
2022-10-11T20:53:25.307Z,26.80
2022-10-11T20:55:52.911Z,26.50
2022-10-11T20:58:20.856Z,24.33
2022-10-11T21:00:48.716Z,29.50
2022-10-11T21:03:16.848Z,26.92
2022-10-11T21:05:44.662Z,32.00
2022-10-11T21:08:11.976Z,27.73
2022-10-11T21:10:39.787Z,32.13
2022-10-11T21:13:07.185Z,25.02
2022-10-11T21:15:34.635Z,21.20
2022-10-11T21:18:02.181Z,31.17
2022-10-11T21:20:29.461Z,27.73
2022-10-11T21:22:57.010Z,27.13
2022-10-11T21:25:24.323Z,22.52
2022-10-11T21:27:51.633Z,27.33
2022-10-11T21:30:18.968Z,25.40
2022-10-11T21:32:46.428Z,29.17
2022-10-11T21:35:14.154Z,25.42
2022-10-11T21:37:41.733Z,28.20
2022-10-11T21:40:09.227Z,25.67
2022-10-11T21:42:36.850Z,27.30
2022-10-11T21:45:05.957Z,35.10
2022-10-11T21:47:38.070Z,30.95
2022-10-11T21:50:06.763Z,37.50
2022-10-11T21:52:34.896Z,30.92
2022-10-11T21:55:02.454Z,33.17
2022-10-11T21:57:29.792Z,31.08
2022-10-11T21:59:57.438Z,32.75
2022-10-11T22:02:24.758Z,31.88
2022-10-11T22:04:52.202Z,36.47
2022-10-11T22:07:19.469Z,27.92
2022-10-11T22:09:47.055Z,32.13
2022-10-11T22:12:14.427Z,29.05
2022-10-11T22:14:41.849Z,25.30
2022-10-11T22:17:09.137Z,28.80
2022-10-11T22:19:37.972Z,27.38
2022-10-11T22:22:05.878Z,31.52
2022-10-11T22:24:33.339Z,29.08
2022-10-11T22:27:00.834Z,30.85
2022-10-11T22:29:33.208Z,29.70
2022-10-11T22:32:01.768Z,29.90
2022-10-11T22:34:33.178Z,31.27
2022-10-11T22:37:00.849Z,26.60
2022-10-11T22:39:28.149Z,30.33
2022-10-11T22:41:55.511Z,29.50
2022-10-11T22:44:22.837Z,28.75
2022-10-11T22:46:50.269Z,30.77
2022-10-11T22:49:17.575Z,28.10
2022-10-11T22:51:44.927Z,36.88
2022-10-11T22:54:12.409Z,37.75
2022-10-11T22:56:39.762Z,30.77
2022-10-11T22:59:07.882Z,29.27
2022-10-11T23:01:35.664Z,29.38
2022-10-11T23:04:03.040Z,29.85
2022-10-11T23:06:30.491Z,26.05
2022-10-11T23:08:58.024Z,30.58
2022-10-11T23:11:25.668Z,24.40
2022-10-11T23:13:53.385Z,27.45
2022-10-11T23:16:20.904Z,26.85
2022-10-11T23:18:48.241Z,34.30
2022-10-11T23:21:15.610Z,30.27
2022-10-11T23:23:43.022Z,31.38
2022-10-11T23:26:13.029Z,30.63
2022-10-11T23:28:40.997Z,31.48
2022-10-11T23:31:13.069Z,38.67
2022-10-11T23:33:40.874Z,31.38
2022-10-11T23:36:14.066Z,27.25
2022-10-11T23:38:41.529Z,30.98
2022-10-11T23:41:09.262Z,34.05
2022-10-11T23:43:36.548Z,37.70
2022-10-11T23:46:04.465Z,27.88
2022-10-11T23:48:32.175Z,33.53
2022-10-11T23:50:59.488Z,33.70
2022-10-11T23:53:26.786Z,39.85
2022-10-11T23:55:54.131Z,33.08
2022-10-11T23:58:21.560Z,40.08
